Back to Top

Language: 

My Weather Underground Personal Weather Station Historical Data with Graphs...

Delerius Weather Station Historical Data
Daily Summary for November 6, 2017 Units:  Metric    English   Both
« Previous Day
Next Day »
Daily Weekly Monthly Yearly Custom
  High: Low: Average:
Temperature: 10.9 °C -0.7 °C 5.3 °C
Dew Point: 6.6 °C -1.6 °C 3.1 °C
Humidity: 98 % 70 % 86 %
Wind Speed: 19.3 km/h 0 km/h 6.4 km/h
Wind Gust: 33.8 km/h - -
Wind:- - SW
Pressure: 1023.9 hPa 1017.8 hPa -
Precipitation: 0 mm    
Historical Graphs
 
 
Tabular Data for November 6, 2017
Time Temperature Dew Point Pressure Wind Wind Speed Wind Gust Humidity Rainfall Rate (Hourly) solar Conditions
00:00 0.3 °C -1 °C 1022.9 hPa WNW 1.6 km/h 3.2 km/h 91 % 0 mm 0 W/m2
00:05 0.3 °C -1 °C 1022.9 hPa WNW 3.2 km/h 6.4 km/h 91 % 0 mm 0 W/m2
00:10 0.3 °C -0.8 °C 1022.9 hPa WNW 3.2 km/h 6.4 km/h 92 % 0 mm 0 W/m2
00:15 0.3 °C -0.8 °C 1022.9 hPa Calm     92 % 0 mm 0 W/m2
00:20 0.3 °C -0.8 °C 1022.9 hPa Calm     92 % 0 mm 0 W/m2
00:25 0.2 °C -0.9 °C 1022.9 hPa Calm     92 % 0 mm 0 W/m2
00:30 0.3 °C -0.8 °C 1023.2 hPa Calm     92 % 0 mm 0 W/m2
00:35 0.2 °C -0.9 °C 1023.2 hPa Calm     92 % 0 mm 0 W/m2
00:40 0.1 °C -1.1 °C 1023.2 hPa Calm     92 % 0 mm 0 W/m2
00:45 0.1 °C -1.1 °C 1022.9 hPa Calm     92 % 0 mm 0 W/m2
00:50 0 °C -1.2 °C 1023.2 hPa Calm     92 % 0 mm 0 W/m2
00:55 0 °C -1.2 °C 1022.9 hPa WNW 1.6 km/h 3.2 km/h 92 % 0 mm 0 W/m2
00:57 0.1 °C -1.1 °C 1023.2 hPa WNW 1.6 km/h 1.6 km/h 92 % 0 mm 0 W/m2
01:02 0.1 °C -0.9 °C 1022.9 hPa Calm     93 % 0 mm 0 W/m2
01:07 0.1 °C -0.9 °C 1023.2 hPa Calm     93 % 0 mm 0 W/m2
01:12 0.1 °C -0.9 °C 1023.2 hPa Calm     93 % 0 mm 0 W/m2
01:17 -0.1 °C -1.2 °C 1022.9 hPa Calm     92 % 0 mm 0 W/m2
01:22 -0.2 °C -1.3 °C 1023.2 hPa Calm     92 % 0 mm 0 W/m2
01:27 -0.2 °C -1.3 °C 1023.2 hPa Calm     92 % 0 mm 0 W/m2
01:32 -0.3 °C -1.4 °C 1022.9 hPa Calm     92 % 0 mm 0 W/m2
01:37 -0.4 °C -1.6 °C 1022.9 hPa WNW 1.6 km/h 3.2 km/h 92 % 0 mm 0 W/m2
01:42 -0.5 °C -1.5 °C 1022.9 hPa WNW 1.6 km/h 3.2 km/h 93 % 0 mm 0 W/m2
01:47 -0.5 °C -1.5 °C 1022.9 hPa Calm     93 % 0 mm 0 W/m2
01:52 -0.5 °C -1.5 °C 1022.9 hPa WNW 1.6 km/h 3.2 km/h 93 % 0 mm 0 W/m2
01:57 -0.5 °C -1.5 °C 1022.9 hPa WNW 1.6 km/h 3.2 km/h 93 % 0 mm 0 W/m2
02:02 -0.5 °C -1.5 °C 1022.9 hPa Calm   1.6 km/h 93 % 0 mm 0 W/m2
02:07 -0.4 °C -1.4 °C 1022.9 hPa Calm     93 % 0 mm 0 W/m2
02:12 -0.4 °C -1.2 °C 1022.9 hPa NW 1.6 km/h 4.8 km/h 94 % 0 mm 0 W/m2
02:17 -0.3 °C -1.2 °C 1022.9 hPa Calm     94 % 0 mm 0 W/m2
02:22 -0.4 °C -1.2 °C 1022.9 hPa Calm     94 % 0 mm 0 W/m2
02:27 -0.4 °C -1.2 °C 1022.9 hPa Calm     94 % 0 mm 0 W/m2
02:32 -0.4 °C -1.2 °C 1022.9 hPa Calm     94 % 0 mm 0 W/m2
02:37 -0.4 °C -1.2 °C 1022.6 hPa Calm     94 % 0 mm 0 W/m2
02:42 -0.5 °C -1.5 °C 1022.9 hPa Calm   3.2 km/h 93 % 0 mm 0 W/m2
02:47 -0.6 °C -1.6 °C 1022.9 hPa NNW 3.2 km/h 3.2 km/h 93 % 0 mm 0 W/m2
02:52 -0.6 °C -1.4 °C 1022.6 hPa NNW 1.6 km/h 3.2 km/h 94 % 0 mm 0 W/m2
02:57 -0.6 °C -1.4 °C 1022.6 hPa NNW 1.6 km/h 3.2 km/h 94 % 0 mm 0 W/m2
03:02 -0.7 °C -1.6 °C 1022.9 hPa Calm     94 % 0 mm 0 W/m2
03:07 -0.7 °C -1.6 °C 1022.9 hPa Calm   3.2 km/h 94 % 0 mm 0 W/m2
03:13 -0.7 °C -1.6 °C 1022.9 hPa Calm   1.6 km/h 94 % 0 mm 0 W/m2
03:19 -0.7 °C -1.6 °C 1022.9 hPa Calm     94 % 0 mm 0 W/m2
03:20 -0.7 °C -1.6 °C 1022.6 hPa Calm     94 % 0 mm 0 W/m2
03:21 -0.7 °C -1.6 °C 1022.6 hPa Calm     94 % 0 mm 0 W/m2
03:23 -0.7 °C -1.6 °C 1022.6 hPa Calm     94 % 0 mm 0 W/m2
03:26 -0.7 °C -1.6 °C 1022.6 hPa Calm     94 % 0 mm 0 W/m2
03:28 -0.7 °C -1.6 °C 1022.9 hPa Calm     94 % 0 mm 0 W/m2
03:31 -0.7 °C -1.6 °C 1022.9 hPa Calm     94 % 0 mm 0 W/m2
03:36 -0.7 °C -1.6 °C 1022.9 hPa Calm   1.6 km/h 94 % 0 mm 0 W/m2
03:41 -0.5 °C -1.2 °C 1022.9 hPa Calm   3.2 km/h 95 % 0 mm 0 W/m2
03:46 -0.3 °C -1 °C 1022.9 hPa Calm     95 % 0 mm 0 W/m2
03:51 -0.3 °C -1 °C 1022.9 hPa Calm     95 % 0 mm 0 W/m2
03:56 -0.2 °C -0.9 °C 1022.9 hPa Calm     95 % 0 mm 0 W/m2
04:01 -0.3 °C -1 °C 1022.9 hPa Calm     95 % 0 mm 0 W/m2
04:06 -0.2 °C -0.9 °C 1022.9 hPa Calm     95 % 0 mm 0 W/m2
04:11 -0.2 °C -0.9 °C 1022.9 hPa Calm     95 % 0 mm 0 W/m2
04:16 -0.2 °C -0.9 °C 1022.9 hPa Calm     95 % 0 mm 0 W/m2
04:21 -0.3 °C -1.2 °C 1022.9 hPa Calm     94 % 0 mm 0 W/m2
04:26 -0.3 °C -1.2 °C 1022.9 hPa Calm     94 % 0 mm 0 W/m2
04:31 -0.4 °C -1.2 °C 1022.9 hPa Calm     94 % 0 mm 0 W/m2
04:36 -0.4 °C -1.2 °C 1022.9 hPa Calm     94 % 0 mm 0 W/m2
04:41 -0.5 °C -1.3 °C 1022.9 hPa Calm     94 % 0 mm 0 W/m2
04:46 -0.5 °C -1.3 °C 1022.9 hPa NNW 1.6 km/h 3.2 km/h 94 % 0 mm 0 W/m2
04:51 -0.6 °C -1.4 °C 1022.9 hPa Calm   3.2 km/h 94 % 0 mm 0 W/m2
04:56 -0.6 °C -1.3 °C 1023.2 hPa Calm     95 % 0 mm 0 W/m2
05:01 -0.6 °C -1.3 °C 1023.2 hPa Calm     95 % 0 mm 0 W/m2
05:06 -0.4 °C -1.1 °C 1023.2 hPa Calm     95 % 0 mm 0 W/m2
05:11 -0.4 °C -1.1 °C 1022.9 hPa Calm     95 % 0 mm 0 W/m2
05:16 -0.4 °C -1.1 °C 1022.9 hPa Calm     95 % 0 mm 0 W/m2
05:21 -0.4 °C -1.1 °C 1022.9 hPa Calm     95 % 0 mm 0 W/m2
05:26 -0.4 °C -1.1 °C 1022.9 hPa Calm     95 % 0 mm 0 W/m2
05:31 -0.4 °C -1.1 °C 1022.9 hPa Calm     95 % 0 mm 0 W/m2
05:36 -0.4 °C -1.1 °C 1022.9 hPa Calm     95 % 0 mm 0 W/m2
05:41 -0.5 °C -1.2 °C 1022.9 hPa Calm     95 % 0 mm 0 W/m2
05:46 -0.5 °C -1.2 °C 1023.2 hPa NNW 3.2 km/h 6.4 km/h 95 % 0 mm 0 W/m2
05:51 -0.5 °C -1.2 °C 1023.2 hPa Calm   1.6 km/h 95 % 0 mm 0 W/m2
05:56 -0.5 °C -1.2 °C 1023.2 hPa Calm     95 % 0 mm 0 W/m2
06:02 -0.6 °C -1.3 °C 1023.2 hPa Calm     95 % 0 mm 0 W/m2
06:07 -0.6 °C -1.3 °C 1023.2 hPa Calm     95 % 0 mm 0 W/m2
06:12 -0.6 °C -1.3 °C 1023.2 hPa Calm     95 % 0 mm 0 W/m2
06:17 -0.6 °C -1.3 °C 1023.2 hPa Calm     95 % 0 mm 0 W/m2
06:22 -0.5 °C -1.2 °C 1023.2 hPa Calm     95 % 0 mm 0 W/m2
06:27 -0.4 °C -1.1 °C 1023.2 hPa Calm     95 % 0 mm 0 W/m2
06:32 -0.4 °C -1.1 °C 1023.2 hPa Calm     95 % 0 mm 0 W/m2
06:37 -0.4 °C -1.1 °C 1023.2 hPa Calm     95 % 0 mm 0 W/m2
06:42 -0.5 °C -1.2 °C 1023.2 hPa Calm     95 % 0 mm 0 W/m2
06:47 -0.6 °C -1.3 °C 1023.2 hPa Calm     95 % 0 mm 0 W/m2
06:52 -0.6 °C -1.3 °C 1023.2 hPa Calm     95 % 0 mm 0 W/m2
06:57 -0.6 °C -1.3 °C 1023.2 hPa Calm     95 % 0 mm 0 W/m2
07:02 -0.6 °C -1.3 °C 1023.2 hPa Calm     95 % 0 mm 0 W/m2
07:07 -0.7 °C -1.4 °C 1023.2 hPa Calm     95 % 0 mm 0 W/m2
07:12 -0.5 °C -1.2 °C 1023.2 hPa Calm     95 % 0 mm 5 W/m2
07:17 -0.2 °C -0.8 °C 1023.2 hPa Calm     96 % 0 mm 7 W/m2
07:22 -0.1 °C -0.7 °C 1023.2 hPa Calm     96 % 0 mm 9 W/m2
07:27 -0.2 °C -0.9 °C 1023.2 hPa Calm     95 % 0 mm 11 W/m2
07:32 -0.3 °C -1 °C 1023.2 hPa NNW 3.2 km/h 4.8 km/h 95 % 0 mm 12 W/m2
07:37 -0.4 °C -1.1 °C 1023.6 hPa Calm     95 % 0 mm 16 W/m2
07:42 -0.4 °C -1.1 °C 1023.6 hPa Calm     95 % 0 mm 18 W/m2
07:47 -0.4 °C -1.1 °C 1023.6 hPa Calm     95 % 0 mm 19 W/m2
07:52 -0.4 °C -1.1 °C 1023.6 hPa Calm     95 % 0 mm 21 W/m2
07:57 -0.4 °C -1.1 °C 1023.6 hPa Calm     95 % 0 mm 23 W/m2
08:02 -0.3 °C -0.8 °C 1023.6 hPa Calm     96 % 0 mm 26 W/m2
08:07 -0.3 °C -1 °C 1023.6 hPa Calm     95 % 0 mm 26 W/m2
08:12 -0.2 °C -0.8 °C 1023.6 hPa Calm     96 % 0 mm 30 W/m2
08:17 0 °C -0.6 °C 1023.6 hPa Calm     96 % 0 mm 30 W/m2
08:22 0.2 °C -0.4 °C 1023.6 hPa Calm     96 % 0 mm 32 W/m2
08:28 0.5 °C -0.1 °C 1023.6 hPa Calm     96 % 0 mm 35 W/m2
08:33 0.6 °C 0.1 °C 1023.9 hPa Calm     96 % 0 mm 37 W/m2
08:38 0.8 °C 0.2 °C 1023.6 hPa Calm     96 % 0 mm 60 W/m2
08:43 1.2 °C 0.8 °C 1023.6 hPa Calm     97 % 0 mm 113 W/m2
08:48 1.6 °C 1.2 °C 1023.6 hPa Calm     97 % 0 mm 167 W/m2
08:53 1.9 °C 1.5 °C 1023.6 hPa Calm     97 % 0 mm 165 W/m2
08:58 2.2 °C 1.8 °C 1023.6 hPa Calm     97 % 0 mm 135 W/m2
09:03 2.3 °C 1.9 °C 1023.6 hPa Calm     97 % 0 mm 183 W/m2
09:08 2.7 °C 2.3 °C 1023.6 hPa Calm     97 % 0 mm 188 W/m2
09:13 3.5 °C 3.1 °C 1023.6 hPa Calm     97 % 0 mm 195 W/m2
09:18 4.1 °C 3.7 °C 1023.6 hPa Calm     97 % 0 mm 211 W/m2
09:23 4.4 °C 3.9 °C 1023.6 hPa Calm     97 % 0 mm 220 W/m2
09:28 4.9 °C 4.4 °C 1023.6 hPa Calm   1.6 km/h 97 % 0 mm 227 W/m2
09:33 5.6 °C 5.3 °C 1023.6 hPa Calm     98 % 0 mm 236 W/m2
09:38 6 °C 5.6 °C 1023.6 hPa Calm     97 % 0 mm 241 W/m2
09:43 6.3 °C 5.8 °C 1023.6 hPa Calm     97 % 0 mm 248 W/m2
09:48 6.7 °C 6.3 °C 1023.6 hPa Calm     97 % 0 mm 255 W/m2
09:52 7.1 °C 6.5 °C 1023.6 hPa Calm     96 % 0 mm 262 W/m2
09:57 7.4 °C 6.5 °C 1023.6 hPa Calm     94 % 0 mm 272 W/m2
10:02 7.6 °C 6.6 °C 1023.6 hPa Calm     93 % 0 mm 279 W/m2
10:07 7.8 °C 6.4 °C 1023.9 hPa Calm   1.6 km/h 91 % 0 mm 285 W/m2
10:12 7.9 °C 6.2 °C 1023.6 hPa SW 4.8 km/h 9.7 km/h 89 % 0 mm 292 W/m2
10:17 8 °C 5.9 °C 1023.6 hPa SSW 3.2 km/h 8 km/h 87 % 0 mm 299 W/m2
10:22 8.1 °C 5.9 °C 1023.6 hPa SSW 6.4 km/h 14.5 km/h 86 % 0 mm 308 W/m2
10:27 8.3 °C 5.8 °C 1023.6 hPa SW 9.7 km/h 14.5 km/h 84 % 0 mm 313 W/m2
10:33 8.6 °C 5.9 °C 1023.6 hPa WSW 11.3 km/h 17.7 km/h 83 % 0 mm 318 W/m2
10:38 8.9 °C 5.8 °C 1023.6 hPa WSW 9.7 km/h 14.5 km/h 81 % 0 mm 315 W/m2
10:43 9.1 °C 5.8 °C 1023.6 hPa SW 8 km/h 11.3 km/h 80 % 0 mm 327 W/m2
10:48 9.3 °C 5.8 °C 1023.6 hPa WSW 9.7 km/h 14.5 km/h 79 % 0 mm 338 W/m2
10:53 9.5 °C 5.8 °C 1023.6 hPa SW 9.7 km/h 16.1 km/h 78 % 0 mm 343 W/m2
10:58 9.6 °C 5.6 °C 1023.6 hPa SW 11.3 km/h 16.1 km/h 76 % 0 mm 346 W/m2
11:03 9.7 °C 5.5 °C 1023.6 hPa SW 9.7 km/h 14.5 km/h 75 % 0 mm 352 W/m2
11:08 9.8 °C 5.4 °C 1023.6 hPa SSW 11.3 km/h 16.1 km/h 74 % 0 mm 353 W/m2
11:13 9.9 °C 5.7 °C 1023.2 hPa SW 8 km/h 12.9 km/h 75 % 0 mm 357 W/m2
11:18 10.2 °C 5.8 °C 1023.2 hPa SSW 8 km/h 12.9 km/h 74 % 0 mm 360 W/m2
11:23 10.3 °C 5.7 °C 1023.2 hPa SSW 9.7 km/h 17.7 km/h 73 % 0 mm 362 W/m2
11:28 10.5 °C 5.7 °C 1023.2 hPa SSW 9.7 km/h 20.9 km/h 72 % 0 mm 364 W/m2
11:33 10.4 °C 5.4 °C 1023.2 hPa SW 14.5 km/h 19.3 km/h 71 % 0 mm 367 W/m2
11:38 10.5 °C 5.7 °C 1023.2 hPa SSW 12.9 km/h 17.7 km/h 72 % 0 mm 366 W/m2
11:43 10.5 °C 5.7 °C 1023.2 hPa SW 12.9 km/h 17.7 km/h 72 % 0 mm 364 W/m2
11:48 10.6 °C 5.8 °C 1023.2 hPa SSW 12.9 km/h 17.7 km/h 72 % 0 mm 364 W/m2
11:53 10.7 °C 5.8 °C 1022.9 hPa SSW 9.7 km/h 20.9 km/h 72 % 0 mm 360 W/m2
11:58 10.8 °C 5.9 °C 1022.9 hPa SW 8 km/h 11.3 km/h 72 % 0 mm 360 W/m2
12:03 10.8 °C 5.7 °C 1022.9 hPa SW 12.9 km/h 19.3 km/h 71 % 0 mm 357 W/m2
12:08 10.8 °C 5.7 °C 1022.6 hPa SW 16.1 km/h 24.1 km/h 71 % 0 mm 332 W/m2
12:13 10.8 °C 5.7 °C 1022.6 hPa SSW 11.3 km/h 16.1 km/h 71 % 0 mm 366 W/m2
12:18 10.9 °C 5.8 °C 1022.6 hPa SW 11.3 km/h 17.7 km/h 71 % 0 mm 359 W/m2
12:23 10.8 °C 5.6 °C 1022.6 hPa SW 14.5 km/h 20.9 km/h 70 % 0 mm 364 W/m2
12:28 10.8 °C 5.7 °C 1022.6 hPa SSW 14.5 km/h 22.5 km/h 71 % 0 mm 283 W/m2
12:33 10.8 °C 5.7 °C 1022.6 hPa SSW 11.3 km/h 17.7 km/h 71 % 0 mm 276 W/m2
12:38 10.7 °C 5.7 °C 1022.2 hPa SSW 14.5 km/h 20.9 km/h 71 % 0 mm 271 W/m2
12:43 10.6 °C 5.8 °C 1022.2 hPa SSW 14.5 km/h 22.5 km/h 72 % 0 mm 283 W/m2
12:48 10.6 °C 5.8 °C 1022.2 hPa SW 12.9 km/h 22.5 km/h 72 % 0 mm 299 W/m2
12:53 10.6 °C 5.8 °C 1022.2 hPa SSW 14.5 km/h 20.9 km/h 72 % 0 mm 294 W/m2
12:58 10.6 °C 5.8 °C 1022.2 hPa SSW 11.3 km/h 17.7 km/h 72 % 0 mm 265 W/m2
13:03 10.7 °C 5.8 °C 1021.9 hPa SW 12.9 km/h 16.1 km/h 72 % 0 mm 258 W/m2
13:08 10.7 °C 5.8 °C 1021.9 hPa SW 14.5 km/h 22.5 km/h 72 % 0 mm 279 W/m2
13:13 10.7 °C 5.8 °C 1021.9 hPa SW 17.7 km/h 25.7 km/h 72 % 0 mm 251 W/m2
13:18 10.7 °C 5.7 °C 1021.9 hPa WSW 12.9 km/h 19.3 km/h 71 % 0 mm 274 W/m2
13:23 10.7 °C 5.7 °C 1021.9 hPa SW 16.1 km/h 24.1 km/h 71 % 0 mm 206 W/m2
13:28 10.6 °C 5.6 °C 1021.9 hPa SW 16.1 km/h 24.1 km/h 71 % 0 mm 149 W/m2
13:33 10.4 °C 5.4 °C 1021.9 hPa SSW 17.7 km/h 25.7 km/h 71 % 0 mm 155 W/m2
13:38 10.3 °C 5.4 °C 1021.9 hPa SW 14.5 km/h 22.5 km/h 72 % 0 mm 162 W/m2
13:43 10.3 °C 5.4 °C 1021.9 hPa SW 14.5 km/h 22.5 km/h 72 % 0 mm 178 W/m2
13:48 10.3 °C 5.4 °C 1021.9 hPa SW 14.5 km/h 19.3 km/h 72 % 0 mm 181 W/m2
13:53 10.3 °C 5.4 °C 1021.6 hPa SW 8 km/h 11.3 km/h 72 % 0 mm 153 W/m2
13:58 10.3 °C 5.4 °C 1021.6 hPa SSW 12.9 km/h 22.5 km/h 72 % 0 mm 195 W/m2
14:04 10.4 °C 5.6 °C 1021.6 hPa SW 9.7 km/h 16.1 km/h 72 % 0 mm 181 W/m2
14:09 10.4 °C 5.6 °C 1021.6 hPa SSW 14.5 km/h 22.5 km/h 72 % 0 mm 178 W/m2
14:14 10.4 °C 5.4 °C 1021.6 hPa SSW 14.5 km/h 22.5 km/h 71 % 0 mm 227 W/m2
14:19 10.5 °C 5.4 °C 1021.6 hPa SSW 11.3 km/h 20.9 km/h 71 % 0 mm 213 W/m2
14:24 10.6 °C 5.6 °C 1021.6 hPa SW 11.3 km/h 14.5 km/h 71 % 0 mm 223 W/m2
14:29 10.7 °C 5.7 °C 1021.6 hPa SW 9.7 km/h 12.9 km/h 71 % 0 mm 192 W/m2
14:34 10.7 °C 5.7 °C 1021.6 hPa SW 9.7 km/h 14.5 km/h 71 % 0 mm 197 W/m2
14:39 10.8 °C 5.7 °C 1021.6 hPa SSW 8 km/h 12.9 km/h 71 % 0 mm 186 W/m2
14:44 10.8 °C 5.6 °C 1021.6 hPa SW 11.3 km/h 19.3 km/h 70 % 0 mm 176 W/m2
14:49 10.8 °C 5.6 °C 1021.6 hPa SW 11.3 km/h 14.5 km/h 70 % 0 mm 162 W/m2
14:54 10.8 °C 5.6 °C 1021.2 hPa SW 8 km/h 12.9 km/h 70 % 0 mm 148 W/m2
14:59 10.6 °C 5.6 °C 1021.2 hPa SW 12.9 km/h 17.7 km/h 71 % 0 mm 132 W/m2
15:09 10.3 °C 5.7 °C 1021.2 hPa SSW 8 km/h 14.5 km/h 73 % 0 mm 46 W/m2
15:14 10.2 °C 5.8 °C 1021.2 hPa SSW 11.3 km/h 14.5 km/h 74 % 0 mm 37 W/m2
15:19 10.2 °C 5.8 °C 1021.2 hPa SSW 11.3 km/h 20.9 km/h 74 % 0 mm 32 W/m2
15:24 10 °C 5.8 °C 1020.9 hPa South 9.7 km/h 19.3 km/h 75 % 0 mm 28 W/m2
15:29 9.9 °C 5.7 °C 1020.9 hPa SSW 14.5 km/h 19.3 km/h 75 % 0 mm 28 W/m2
15:34 9.8 °C 5.8 °C 1020.9 hPa South 11.3 km/h 17.7 km/h 76 % 0 mm 26 W/m2
15:39 9.7 °C 5.7 °C 1020.9 hPa South 11.3 km/h 17.7 km/h 76 % 0 mm 23 W/m2
15:44 9.6 °C 5.8 °C 1020.9 hPa SSW 9.7 km/h 16.1 km/h 77 % 0 mm 19 W/m2
15:49 9.6 °C 5.9 °C 1021.2 hPa SSW 11.3 km/h 16.1 km/h 78 % 0 mm 18 W/m2
15:54 9.4 °C 5.8 °C 1020.9 hPa SSW 9.7 km/h 12.9 km/h 78 % 0 mm 16 W/m2
15:59 9.3 °C 5.7 °C 1021.2 hPa SSW 8 km/h 14.5 km/h 78 % 0 mm 14 W/m2
16:04 9.2 °C 5.7 °C 1021.2 hPa SSW 11.3 km/h 16.1 km/h 79 % 0 mm 14 W/m2
16:09 9.1 °C 5.7 °C 1020.9 hPa SSW 4.8 km/h 11.3 km/h 79 % 0 mm 11 W/m2
16:14 9 °C 5.7 °C 1021.2 hPa SSW 3.2 km/h 9.7 km/h 80 % 0 mm 7 W/m2
16:19 8.9 °C 5.6 °C 1021.2 hPa SW 6.4 km/h 12.9 km/h 80 % 0 mm 0 W/m2
16:24 8.8 °C 5.7 °C 1020.9 hPa West 6.4 km/h 11.3 km/h 81 % 0 mm 0 W/m2
16:29 8.7 °C 5.6 °C 1020.9 hPa WSW 4.8 km/h 14.5 km/h 81 % 0 mm 0 W/m2
16:34 8.6 °C 5.5 °C 1020.9 hPa SW 3.2 km/h 8 km/h 81 % 0 mm 0 W/m2
16:39 8.5 °C 5.6 °C 1020.9 hPa WSW 6.4 km/h 11.3 km/h 82 % 0 mm 0 W/m2
16:44 8.4 °C 5.5 °C 1020.9 hPa SW 8 km/h 14.5 km/h 82 % 0 mm 0 W/m2
16:49 8.4 °C 5.5 °C 1020.9 hPa SSW 6.4 km/h 14.5 km/h 82 % 0 mm 0 W/m2
16:54 8.4 °C 5.7 °C 1020.9 hPa SSW 8 km/h 17.7 km/h 83 % 0 mm 0 W/m2
16:57 8.4 °C 5.7 °C 1020.9 hPa SSW 8 km/h 16.1 km/h 83 % 0 mm 0 W/m2
17:02 8.4 °C 5.7 °C 1020.9 hPa SSW 8 km/h 19.3 km/h 83 % 0 mm 0 W/m2
17:07 8.4 °C 5.7 °C 1020.9 hPa SW 9.7 km/h 14.5 km/h 83 % 0 mm 0 W/m2
17:12 8.4 °C 5.7 °C 1020.9 hPa SW 4.8 km/h 11.3 km/h 83 % 0 mm 0 W/m2
17:17 8.3 °C 5.6 °C 1020.9 hPa South 6.4 km/h 14.5 km/h 83 % 0 mm 0 W/m2
17:22 8.3 °C 5.6 °C 1020.9 hPa SSW 6.4 km/h 11.3 km/h 83 % 0 mm 0 W/m2
17:27 8.3 °C 5.6 °C 1020.9 hPa WSW 4.8 km/h 9.7 km/h 83 % 0 mm 0 W/m2
17:32 8.3 °C 5.6 °C 1020.5 hPa WSW 1.6 km/h 6.4 km/h 83 % 0 mm 0 W/m2
17:38 8.2 °C 5.5 °C 1020.5 hPa WSW 3.2 km/h 9.7 km/h 83 % 0 mm 0 W/m2
17:43 8.2 °C 5.5 °C 1020.5 hPa SW 8 km/h 11.3 km/h 83 % 0 mm 0 W/m2
17:48 8.1 °C 5.6 °C 1020.5 hPa Calm     84 % 0 mm 0 W/m2
17:53 8.1 °C 5.6 °C 1020.5 hPa SSW 1.6 km/h 8 km/h 84 % 0 mm 0 W/m2
17:58 8.1 °C 5.6 °C 1020.5 hPa SW 6.4 km/h 9.7 km/h 84 % 0 mm 0 W/m2
18:03 8.1 °C 5.6 °C 1020.5 hPa SSW 9.7 km/h 12.9 km/h 84 % 0 mm 0 W/m2
18:08 8.1 °C 5.6 °C 1020.5 hPa SW 8 km/h 16.1 km/h 84 % 0 mm 0 W/m2
18:13 8.1 °C 5.6 °C 1020.2 hPa SSW 9.7 km/h 16.1 km/h 84 % 0 mm 0 W/m2
18:18 8.1 °C 5.6 °C 1020.2 hPa SSW 11.3 km/h 17.7 km/h 84 % 0 mm 0 W/m2
18:24 8.2 °C 5.7 °C 1020.2 hPa SSW 14.5 km/h 20.9 km/h 84 % 0 mm 0 W/m2
18:32 8.2 °C 5.7 °C 1020.2 hPa SSW 12.9 km/h 24.1 km/h 84 % 0 mm 0 W/m2
18:37 8.1 °C 5.6 °C 1020.2 hPa SSW 11.3 km/h 19.3 km/h 84 % 0 mm 0 W/m2
18:42 8.1 °C 5.7 °C 1020.2 hPa SSW 12.9 km/h 24.1 km/h 85 % 0 mm 0 W/m2
18:43 8.1 °C 5.7 °C 1020.2 hPa SSW 9.7 km/h 16.1 km/h 85 % 0 mm 0 W/m2
18:48 8 °C 5.6 °C 1019.9 hPa SSW 11.3 km/h 16.1 km/h 85 % 0 mm 0 W/m2
18:53 7.9 °C 5.6 °C 1019.9 hPa South 12.9 km/h 19.3 km/h 85 % 0 mm 0 W/m2
18:58 7.8 °C 5.4 °C 1019.9 hPa South 9.7 km/h 16.1 km/h 85 % 0 mm 0 W/m2
19:03 7.8 °C 5.4 °C 1019.9 hPa South 4.8 km/h 9.7 km/h 85 % 0 mm 0 W/m2
19:13 7.8 °C 5.6 °C 1019.9 hPa SSW 8 km/h 16.1 km/h 86 % 0 mm 0 W/m2
19:18 7.8 °C 5.6 °C 1019.9 hPa SSW 8 km/h 14.5 km/h 86 % 0 mm 0 W/m2
19:23 7.7 °C 5.5 °C 1019.9 hPa SSW 9.7 km/h 16.1 km/h 86 % 0 mm 0 W/m2
19:28 7.8 °C 5.8 °C 1019.9 hPa SSW 9.7 km/h 17.7 km/h 87 % 0 mm 0 W/m2
19:33 7.8 °C 5.8 °C 1019.5 hPa SSW 12.9 km/h 22.5 km/h 87 % 0 mm 0 W/m2
19:38 7.8 °C 5.8 °C 1019.5 hPa SSW 11.3 km/h 17.7 km/h 87 % 0 mm 0 W/m2
19:43 7.8 °C 5.8 °C 1019.5 hPa SW 12.9 km/h 19.3 km/h 87 % 0 mm 0 W/m2
19:48 7.8 °C 5.8 °C 1019.5 hPa SSW 12.9 km/h 20.9 km/h 87 % 0 mm 0 W/m2
19:53 7.8 °C 5.8 °C 1019.5 hPa SSW 14.5 km/h 24.1 km/h 87 % 0 mm 0 W/m2
19:58 7.8 °C 5.8 °C 1019.5 hPa SSW 12.9 km/h 20.9 km/h 87 % 0 mm 0 W/m2
20:03 7.8 °C 5.8 °C 1019.5 hPa SSW 12.9 km/h 20.9 km/h 87 % 0 mm 0 W/m2
20:08 7.9 °C 5.9 °C 1019.5 hPa SSW 11.3 km/h 19.3 km/h 87 % 0 mm 0 W/m2
20:13 7.9 °C 5.9 °C 1019.5 hPa SSW 16.1 km/h 33.8 km/h 87 % 0 mm 0 W/m2
20:18 8 °C 5.9 °C 1019.2 hPa SSW 16.1 km/h 25.7 km/h 87 % 0 mm 0 W/m2
20:28 8.1 °C 6.1 °C 1019.2 hPa SW 12.9 km/h 19.3 km/h 87 % 0 mm 0 W/m2
20:33 8.1 °C 5.9 °C 1019.2 hPa SSW 16.1 km/h 22.5 km/h 86 % 0 mm 0 W/m2
20:38 8.2 °C 6 °C 1019.2 hPa SSW 16.1 km/h 22.5 km/h 86 % 0 mm 0 W/m2
20:43 8.2 °C 6 °C 1019.2 hPa SSW 16.1 km/h 24.1 km/h 86 % 0 mm 0 W/m2
20:49 8.2 °C 5.8 °C 1018.8 hPa SW 16.1 km/h 25.7 km/h 85 % 0 mm 0 W/m2
20:54 8.2 °C 5.8 °C 1018.8 hPa SSW 19.3 km/h 29 km/h 85 % 0 mm 0 W/m2
20:59 8.3 °C 5.9 °C 1018.8 hPa SSW 17.7 km/h 33.8 km/h 85 % 0 mm 0 W/m2
21:04 8.3 °C 5.8 °C 1018.8 hPa SSW 17.7 km/h 30.6 km/h 84 % 0 mm 0 W/m2
21:09 8.3 °C 5.8 °C 1018.8 hPa SSW 16.1 km/h 22.5 km/h 84 % 0 mm 0 W/m2
21:14 8.4 °C 5.8 °C 1018.8 hPa SSW 17.7 km/h 29 km/h 84 % 0 mm 0 W/m2
21:19 8.4 °C 5.8 °C 1018.8 hPa SSW 19.3 km/h 30.6 km/h 84 % 0 mm 0 W/m2
21:24 8.5 °C 5.8 °C 1018.8 hPa SSW 14.5 km/h 25.7 km/h 83 % 0 mm 0 W/m2
21:29 8.6 °C 5.9 °C 1018.8 hPa SSW 17.7 km/h 22.5 km/h 83 % 0 mm 0 W/m2
21:34 8.5 °C 5.6 °C 1018.8 hPa SW 14.5 km/h 20.9 km/h 82 % 0 mm 0 W/m2
21:39 8.6 °C 5.9 °C 1018.8 hPa SSW 14.5 km/h 22.5 km/h 83 % 0 mm 0 W/m2
21:44 8.6 °C 5.7 °C 1018.8 hPa SSW 11.3 km/h 17.7 km/h 82 % 0 mm 0 W/m2
21:49 8.6 °C 5.7 °C 1018.8 hPa SSW 11.3 km/h 19.3 km/h 82 % 0 mm 0 W/m2
21:54 8.6 °C 5.7 °C 1018.8 hPa SSW 9.7 km/h 14.5 km/h 82 % 0 mm 0 W/m2
21:59 8.7 °C 5.8 °C 1018.8 hPa South 11.3 km/h 20.9 km/h 82 % 0 mm 0 W/m2
22:04 8.7 °C 5.8 °C 1018.8 hPa SSW 6.4 km/h 14.5 km/h 82 % 0 mm 0 W/m2
22:09 8.7 °C 5.8 °C 1018.5 hPa South 4.8 km/h 11.3 km/h 82 % 0 mm 0 W/m2
22:14 8.6 °C 5.7 °C 1018.5 hPa South 9.7 km/h 16.1 km/h 82 % 0 mm 0 W/m2
22:19 8.6 °C 5.7 °C 1018.5 hPa South 9.7 km/h 24.1 km/h 82 % 0 mm 0 W/m2
22:24 8.6 °C 5.7 °C 1018.5 hPa SSE 14.5 km/h 20.9 km/h 82 % 0 mm 0 W/m2
22:30 8.7 °C 5.8 °C 1018.5 hPa SSE 11.3 km/h 16.1 km/h 82 % 0 mm 0 W/m2
22:35 8.7 °C 5.8 °C 1018.5 hPa South 12.9 km/h 19.3 km/h 82 % 0 mm 0 W/m2
22:40 8.7 °C 5.8 °C 1018.5 hPa South 14.5 km/h 24.1 km/h 82 % 0 mm 0 W/m2
22:45 8.7 °C 5.8 °C 1018.5 hPa South 17.7 km/h 30.6 km/h 82 % 0 mm 0 W/m2
22:50 8.8 °C 5.9 °C 1018.2 hPa SSW 16.1 km/h 24.1 km/h 82 % 0 mm 0 W/m2
22:55 8.8 °C 5.9 °C 1018.2 hPa South 12.9 km/h 20.9 km/h 82 % 0 mm 0 W/m2
23:00 8.8 °C 5.9 °C 1018.2 hPa SSW 14.5 km/h 24.1 km/h 82 % 0 mm 0 W/m2
23:02 8.8 °C 5.9 °C 1018.2 hPa South 16.1 km/h 22.5 km/h 82 % 0 mm 0 W/m2
23:07 8.8 °C 6.1 °C 1018.2 hPa South 14.5 km/h 25.7 km/h 83 % 0 mm 0 W/m2
23:12 8.8 °C 6.1 °C 1018.2 hPa South 16.1 km/h 25.7 km/h 83 % 0 mm 0 W/m2
23:17 8.8 °C 6.1 °C 1017.8 hPa South 11.3 km/h 17.7 km/h 83 % 0 mm 0 W/m2
23:22 8.7 °C 6 °C 1018.2 hPa South 9.7 km/h 16.1 km/h 83 % 0 mm 0 W/m2
23:27 8.6 °C 5.9 °C 1018.2 hPa SSE 9.7 km/h 17.7 km/h 83 % 0 mm 0 W/m2
23:32 8.5 °C 5.8 °C 1018.2 hPa South 11.3 km/h 17.7 km/h 83 % 0 mm 0 W/m2
23:37 8.4 °C 5.8 °C 1018.2 hPa SSE 6.4 km/h 12.9 km/h 84 % 0 mm 0 W/m2
23:42 8.3 °C 5.8 °C 1017.8 hPa SSE 9.7 km/h 14.5 km/h 84 % 0 mm 0 W/m2
23:47 8.2 °C 5.7 °C 1017.8 hPa SE 11.3 km/h 19.3 km/h 84 % 0 mm 0 W/m2
23:52 8.1 °C 5.7 °C 1017.8 hPa SE 11.3 km/h 14.5 km/h 85 % 0 mm 0 W/m2
23:57 8 °C 5.6 °C 1017.8 hPa SE 12.9 km/h 17.7 km/h 85 % 0 mm 0 W/m2
Delerius-Weather
Compliments of Weather Underground - 2.25 mb

Data updates at regular intervals.